Time;durP1;ratioP1;P1;durP2;ratioP2;P2;SDS_P1;SDS_P2;PMS_P1;PMS_P2;Temp;Humidity;BMP_temperature;BMP_pressure;BME280_temperature;BME280_humidity;BME280_pressure;Samples;Min_cycle;Max_cycle;Signal;HPM_P1;HPM_P2
2021/07/06 00:01:45;;;;;;;3.20;2.90;;;19.50;99.90;;;;;;4955870;28;20550;-63
2021/07/06 00:04:11;;;;;;;3.27;2.63;;;19.50;99.90;;;;;;4955900;29;20434;-63
2021/07/06 00:06:36;;;;;;;2.50;2.30;;;19.50;99.90;;;;;;4955668;29;20169;-63
2021/07/06 00:09:03;;;;;;;2.70;2.33;;;19.60;99.90;;;;;;4956387;29;20170;-63
2021/07/06 00:11:29;;;;;;;4.60;2.80;;;19.60;99.90;;;;;;4944015;29;20175;-63
2021/07/06 00:13:55;;;;;;;2.93;2.63;;;19.60;99.90;;;;;;4936352;29;21040;-63
2021/07/06 00:16:20;;;;;;;3.03;2.80;;;19.50;99.90;;;;;;4935857;29;20204;-63
2021/07/06 00:18:46;;;;;;;2.70;2.33;;;19.50;99.90;;;;;;4935205;29;20202;-63
2021/07/06 00:21:12;;;;;;;2.30;2.10;;;19.50;99.90;;;;;;4946976;29;20185;-63
2021/07/06 00:23:38;;;;;;;2.50;2.17;;;19.50;99.90;;;;;;4955307;28;20198;-63
2021/07/06 00:26:04;;;;;;;2.13;1.93;;;19.60;99.90;;;;;;4955625;29;20308;-63
2021/07/06 00:28:31;;;;;;;3.40;2.80;;;19.50;99.90;;;;;;4955657;29;20417;-63
2021/07/06 00:30:57;;;;;;;5.17;2.63;;;19.40;99.90;;;;;;4955429;29;20414;-63
2021/07/06 00:33:22;;;;;;;2.37;2.10;;;19.40;99.90;;;;;;4955826;28;20430;-63
2021/07/06 00:35:48;;;;;;;4.57;3.37;;;19.30;99.90;;;;;;4955487;29;20205;-63
2021/07/06 00:38:14;;;;;;;5.83;3.63;;;19.30;99.90;;;;;;4959706;29;20205;-62
2021/07/06 00:40:41;;;;;;;3.70;2.80;;;19.30;99.90;;;;;;4959659;29;20180;-63
2021/07/06 00:43:07;;;;;;;5.43;3.43;;;19.30;99.90;;;;;;4962724;28;20201;-63
2021/07/06 00:45:32;;;;;;;7.03;3.30;;;19.40;99.90;;;;;;4964594;29;20464;-62
2021/07/06 00:48:01;;;;;;;5.40;3.27;;;19.40;99.90;;;;;;4956583;29;20178;-65
2021/07/06 00:50:28;;;;;;;5.03;3.33;;;19.40;99.90;;;;;;4955508;29;20698;-60
2021/07/06 00:52:54;;;;;;;4.50;3.30;;;19.40;99.90;;;;;;4955431;28;20485;-63
2021/07/06 00:55:20;;;;;;;4.90;3.60;;;19.30;99.90;;;;;;4955582;29;20449;-65
2021/07/06 00:57:46;;;;;;;2.90;2.27;;;19.30;99.90;;;;;;4954885;29;20414;-64
2021/07/06 01:00:16;;;;;;;3.93;3.10;;;19.10;99.90;;;;;;4955114;29;20414;-64
2021/07/06 01:02:42;;;;;;;4.00;2.70;;;19.10;99.90;;;;;;4953736;28;20807;-62
2021/07/06 01:05:11;;;;;;;2.97;2.13;;;19.10;99.90;;;;;;4955170;29;20413;-63
2021/07/06 01:07:38;;;;;;;2.90;2.70;;;19.20;99.90;;;;;;4954732;29;20924;-63
2021/07/06 01:10:05;;;;;;;2.60;2.40;;;19.30;99.90;;;;;;4954663;29;20406;-64
2021/07/06 01:12:31;;;;;;;5.27;2.07;;;19.30;99.90;;;;;;4953239;23;20454;-67
2021/07/06 01:14:59;;;;;;;3.00;2.60;;;19.40;99.90;;;;;;4954767;29;20465;-68
2021/07/06 01:17:28;;;;;;;2.97;2.77;;;19.30;99.90;;;;;;4954851;29;20930;-67
2021/07/06 01:19:55;;;;;;;2.63;2.43;;;19.40;99.90;;;;;;4954971;29;20856;-68
2021/07/06 01:22:32;;;;;;;3.60;2.30;;;19.50;99.90;;;;;;4954566;28;20406;-67
2021/07/06 01:24:59;;;;;;;2.67;2.47;;;19.50;99.90;;;;;;4955567;29;20385;-67
2021/07/06 01:27:25;;;;;;;2.40;2.20;;;19.50;99.90;;;;;;4955363;29;20476;-65
2021/07/06 01:29:53;;;;;;;5.17;2.10;;;19.40;99.90;;;;;;4954928;29;20894;-65
2021/07/06 01:32:18;;;;;;;2.30;2.10;;;19.50;99.90;;;;;;4954381;28;20265;-67
2021/07/06 01:34:44;;;;;;;3.83;2.20;;;19.50;99.90;;;;;;4954807;28;20456;-67
2021/07/06 01:37:10;;;;;;;4.93;2.80;;;19.50;99.90;;;;;;4958255;29;20178;-67
2021/07/06 01:39:36;;;;;;;3.63;2.40;;;19.50;99.90;;;;;;4958656;29;20193;-67
2021/07/06 01:42:01;;;;;;;4.30;2.63;;;19.50;99.90;;;;;;4958443;29;20780;-67
2021/07/06 01:44:28;;;;;;;3.00;2.80;;;19.60;99.90;;;;;;4958128;28;20759;-67
2021/07/06 01:46:54;;;;;;;3.37;2.30;;;19.70;99.90;;;;;;4958022;29;20598;-67
2021/07/06 01:49:20;;;;;;;3.70;3.20;;;19.70;99.90;;;;;;4956837;29;20521;-68
2021/07/06 01:51:47;;;;;;;6.00;2.10;;;19.80;99.90;;;;;;4957713;29;20228;-67
2021/07/06 01:54:14;;;;;;;6.23;2.60;;;19.80;99.90;;;;;;4957840;28;20430;-67
2021/07/06 01:56:41;;;;;;;2.47;2.10;;;19.70;99.90;;;;;;4957814;29;20429;-67
2021/07/06 01:59:08;;;;;;;4.17;2.10;;;19.60;99.90;;;;;;4956498;29;20977;-67
2021/07/06 02:01:34;;;;;;;3.07;2.60;;;19.60;99.90;;;;;;4957778;29;20417;-67
2021/07/06 02:04:00;;;;;;;3.30;2.53;;;19.50;99.90;;;;;;4957633;28;20457;-67
2021/07/06 02:06:26;;;;;;;2.83;2.60;;;19.50;99.90;;;;;;4957474;29;20410;-68
2021/07/06 02:08:52;;;;;;;5.53;2.73;;;19.40;99.90;;;;;;4949072;29;20422;-68
2021/07/06 02:11:17;;;;;;;4.93;2.60;;;19.30;99.90;;;;;;4938339;29;20265;-67
2021/07/06 02:13:43;;;;;;;3.20;2.70;;;19.30;99.90;;;;;;4937795;29;20234;-65
2021/07/06 02:16:10;;;;;;;3.03;2.73;;;19.20;99.90;;;;;;4938267;29;20178;-65
2021/07/06 02:18:36;;;;;;;3.30;2.40;;;19.20;99.90;;;;;;4951944;29;20194;-65
2021/07/06 02:21:02;;;;;;;2.83;2.50;;;19.20;99.90;;;;;;4957661;29;20437;-65
2021/07/06 02:23:30;;;;;;;3.70;2.50;;;19.10;99.90;;;;;;4957809;28;20557;-65
2021/07/06 02:25:58;;;;;;;2.67;2.43;;;19.10;99.90;;;;;;4957615;29;20481;-65
2021/07/06 02:28:23;;;;;;;3.57;3.10;;;19.00;99.90;;;;;;4940763;29;20788;-65
2021/07/06 02:30:49;;;;;;;3.23;3.03;;;18.90;99.90;;;;;;4938390;29;20415;-65
2021/07/06 02:33:16;;;;;;;3.90;2.67;;;18.80;99.90;;;;;;4938014;29;20190;-65
2021/07/06 02:35:41;;;;;;;2.90;2.17;;;18.80;99.90;;;;;;4938095;29;20189;-65
2021/07/06 02:38:07;;;;;;;4.87;3.07;;;18.70;99.90;;;;;;4934131;29;20458;-65
2021/07/06 02:40:33;;;;;;;3.00;2.73;;;18.70;99.90;;;;;;4938147;29;20591;-65
2021/07/06 02:43:00;;;;;;;2.80;2.50;;;18.60;99.90;;;;;;4937837;29;20195;-66
2021/07/06 02:45:27;;;;;;;3.13;2.60;;;18.60;99.90;;;;;;4937810;29;20418;-66
2021/07/06 02:47:53;;;;;;;3.47;2.50;;;18.60;99.90;;;;;;4945397;29;20413;-65
2021/07/06 02:50:20;;;;;;;3.60;2.23;;;18.60;99.90;;;;;;4957238;29;20401;-66
2021/07/06 02:52:46;;;;;;;2.50;2.30;;;18.60;99.90;;;;;;4956576;28;20433;-66
2021/07/06 02:55:12;;;;;;;2.60;2.40;;;18.60;99.90;;;;;;4957071;29;20480;-66
2021/07/06 02:57:41;;;;;;;2.20;2.10;;;18.50;99.90;;;;;;4937657;29;20402;-65
2021/07/06 03:00:11;;;;;;;2.97;2.57;;;18.50;99.90;;;;;;4937675;29;20907;-65
2021/07/06 03:02:38;;;;;;;2.80;2.57;;;18.40;99.90;;;;;;4937302;29;20509;-66
2021/07/06 03:05:06;;;;;;;2.00;1.90;;;18.40;99.90;;;;;;4937522;29;20407;-66
2021/07/06 03:07:32;;;;;;;2.73;2.00;;;18.40;99.90;;;;;;4937357;29;20915;-66
2021/07/06 03:10:00;;;;;;;2.70;2.10;;;18.40;99.90;;;;;;4937622;29;20425;-66
2021/07/06 03:12:26;;;;;;;2.60;2.40;;;18.40;99.90;;;;;;4937179;29;20170;-66
2021/07/06 03:14:51;;;;;;;2.83;2.30;;;18.30;99.90;;;;;;4937919;29;20474;-66
2021/07/06 03:17:17;;;;;;;2.70;2.00;;;18.30;99.90;;;;;;4941310;29;20178;-67
2021/07/06 03:19:43;;;;;;;2.40;2.20;;;18.30;99.90;;;;;;4956494;29;20217;-66
2021/07/06 03:22:08;;;;;;;2.40;2.20;;;18.30;99.90;;;;;;4956276;29;20181;-66
2021/07/06 03:24:34;;;;;;;3.03;2.10;;;18.30;99.90;;;;;;4956506;28;20428;-66
2021/07/06 03:27:00;;;;;;;2.30;2.20;;;18.30;99.90;;;;;;4956244;29;20173;-66
2021/07/06 03:29:25;;;;;;;2.50;2.30;;;18.30;99.90;;;;;;4956232;29;20177;-66
2021/07/06 03:31:51;;;;;;;2.20;2.00;;;18.20;99.90;;;;;;4955397;29;20521;-66
2021/07/06 03:34:16;;;;;;;2.17;1.97;;;18.30;99.90;;;;;;4937019;29;20218;-66
2021/07/06 03:36:42;;;;;;;2.50;2.30;;;18.30;99.90;;;;;;4936876;29;20178;-66
2021/07/06 03:39:07;;;;;;;3.40;2.60;;;18.30;99.90;;;;;;4937053;29;20253;-66
2021/07/06 03:41:33;;;;;;;3.67;1.90;;;18.20;99.90;;;;;;4937095;29;20171;-66
2021/07/06 03:43:58;;;;;;;3.47;2.30;;;18.20;99.90;;;;;;4936760;29;20190;-66
2021/07/06 03:46:26;;;;;;;2.40;2.20;;;18.20;99.90;;;;;;4936761;29;20707;-66
2021/07/06 03:48:52;;;;;;;2.50;2.30;;;18.20;99.90;;;;;;4953197;29;20204;-66
2021/07/06 03:51:18;;;;;;;3.00;2.17;;;18.20;99.90;;;;;;4956574;29;20805;-66
2021/07/06 03:53:43;;;;;;;2.93;2.40;;;18.20;99.90;;;;;;4955714;28;20425;-66
2021/07/06 03:56:09;;;;;;;2.77;2.30;;;18.20;99.90;;;;;;4956039;29;20205;-66
2021/07/06 03:58:34;;;;;;;4.30;2.27;;;18.30;99.90;;;;;;4955288;28;20285;-66
2021/07/06 04:01:02;;;;;;;2.80;2.50;;;18.20;99.90;;;;;;4955889;29;20178;-66
2021/07/06 04:03:27;;;;;;;3.00;2.20;;;18.10;99.90;;;;;;4955622;28;20215;-66
2021/07/06 04:05:53;;;;;;;3.10;2.40;;;18.20;99.90;;;;;;4946234;29;20406;-66
2021/07/06 04:08:18;;;;;;;2.43;2.10;;;18.30;99.90;;;;;;4936093;29;20178;-67
2021/07/06 04:10:44;;;;;;;2.40;2.00;;;18.40;99.90;;;;;;4936406;29;20178;-66
2021/07/06 04:13:10;;;;;;;3.93;2.17;;;18.40;99.90;;;;;;4936111;29;20214;-66
2021/07/06 04:15:37;;;;;;;4.30;2.33;;;18.50;99.90;;;;;;4936489;29;20175;-66
2021/07/06 04:18:03;;;;;;;2.73;2.20;;;18.50;99.90;;;;;;4946302;29;20618;-66
2021/07/06 04:20:28;;;;;;;3.90;2.60;;;18.50;99.90;;;;;;4955358;29;20496;-66
2021/07/06 04:22:54;;;;;;;2.53;2.33;;;18.50;99.90;;;;;;4955253;28;20273;-66
2021/07/06 04:25:19;;;;;;;2.43;2.23;;;18.60;99.90;;;;;;4955510;29;20247;-66
2021/07/06 04:27:45;;;;;;;3.30;2.17;;;18.60;99.90;;;;;;4955286;29;20225;-67
2021/07/06 04:30:12;;;;;;;2.90;2.47;;;18.60;99.90;;;;;;4954627;29;20170;-66
2021/07/06 04:32:37;;;;;;;2.20;2.00;;;18.50;99.90;;;;;;4948282;29;20221;-66
2021/07/06 04:35:05;;;;;;;2.30;2.10;;;18.60;99.90;;;;;;4936127;29;20501;-66
2021/07/06 04:37:31;;;;;;;3.13;2.20;;;18.60;99.90;;;;;;4935762;29;20587;-66
2021/07/06 04:39:56;;;;;;;2.67;2.30;;;18.60;99.90;;;;;;4935983;29;20446;-66
2021/07/06 04:42:22;;;;;;;3.17;2.30;;;18.60;99.90;;;;;;4935638;29;20543;-66
2021/07/06 04:44:48;;;;;;;2.67;2.47;;;18.60;99.90;;;;;;4935800;29;20263;-66
2021/07/06 04:47:13;;;;;;;3.10;2.60;;;18.70;99.90;;;;;;4939809;29;20195;-66
2021/07/06 04:49:39;;;;;;;2.30;2.10;;;18.70;99.90;;;;;;4955405;29;20594;-66
2021/07/06 04:52:05;;;;;;;3.07;2.50;;;18.80;99.90;;;;;;4955089;29;20639;-66
2021/07/06 04:54:30;;;;;;;3.00;2.57;;;18.80;99.90;;;;;;4955247;28;20239;-66
2021/07/06 04:56:56;;;;;;;2.60;2.00;;;18.90;99.90;;;;;;4954960;29;20540;-67
2021/07/06 04:59:22;;;;;;;3.90;2.80;;;19.00;99.90;;;;;;4954731;29;20598;-67
2021/07/06 05:01:47;;;;;;;3.87;2.60;;;19.20;99.90;;;;;;4955390;29;20178;-67
2021/07/06 05:04:15;;;;;;;1.90;1.80;;;19.40;99.90;;;;;;4955189;28;20667;-67
2021/07/06 05:06:41;;;;;;;2.50;2.30;;;19.60;99.90;;;;;;4954753;29;20178;-67
2021/07/06 05:09:07;;;;;;;2.93;2.30;;;19.80;99.90;;;;;;4955048;28;20609;-67
2021/07/06 05:11:32;;;;;;;4.23;2.10;;;20.00;99.90;;;;;;4957559;29;20854;-67
2021/07/06 05:13:58;;;;;;;1.90;1.80;;;20.10;99.90;;;;;;4958459;28;20206;-67
2021/07/06 05:16:24;;;;;;;2.53;2.00;;;20.10;99.90;;;;;;4958360;29;20584;-67
2021/07/06 05:18:49;;;;;;;4.60;2.30;;;20.10;99.90;;;;;;4958377;29;20280;-67
2021/07/06 05:21:16;;;;;;;4.20;3.10;;;20.10;99.90;;;;;;4958379;29;20174;-67
2021/07/06 05:23:43;;;;;;;2.60;2.07;;;20.00;99.90;;;;;;4958224;28;20269;-67
2021/07/06 05:26:09;;;;;;;1.93;1.83;;;19.90;99.90;;;;;;4958231;29;20468;-67
2021/07/06 05:28:34;;;;;;;3.13;2.20;;;19.90;99.90;;;;;;4958710;29;20398;-67
2021/07/06 05:31:01;;;;;;;2.97;2.10;;;19.90;99.90;;;;;;4945543;29;20186;-67
2021/07/06 05:33:27;;;;;;;2.80;2.30;;;19.90;99.90;;;;;;4938944;29;20194;-67
2021/07/06 05:35:52;;;;;;;2.33;2.13;;;20.00;99.90;;;;;;4939236;29;20775;-67
2021/07/06 05:38:19;;;;;;;2.87;2.40;;;20.10;99.90;;;;;;4938547;29;20190;-67
2021/07/06 05:40:44;;;;;;;4.40;2.43;;;20.20;99.90;;;;;;4939112;29;20174;-67
2021/07/06 05:43:10;;;;;;;2.90;2.20;;;20.30;99.90;;;;;;4939049;29;20787;-66
2021/07/06 05:45:36;;;;;;;4.33;1.80;;;20.30;99.90;;;;;;4938331;29;20537;-66
2021/07/06 05:48:03;;;;;;;1.63;1.53;;;20.40;99.90;;;;;;4948442;29;20186;-68
2021/07/06 05:50:29;;;;;;;2.13;1.90;;;20.50;99.90;;;;;;4938838;29;20903;-66
2021/07/06 05:52:54;;;;;;;2.03;1.83;;;20.60;99.90;;;;;;4938588;29;20430;-67
2021/07/06 05:55:20;;;;;;;2.47;2.27;;;20.80;99.90;;;;;;4938568;29;20179;-67
2021/07/06 05:57:46;;;;;;;2.23;2.03;;;20.90;99.90;;;;;;4939042;29;20171;-67
2021/07/06 06:00:13;;;;;;;3.60;2.80;;;21.00;99.90;;;;;;4938584;29;20410;-64
2021/07/06 06:02:39;;;;;;;2.33;1.90;;;21.20;99.90;;;;;;4938720;29;20201;-65
2021/07/06 06:05:07;;;;;;;3.80;2.30;;;21.60;99.90;;;;;;4938394;29;20411;-65
2021/07/06 06:07:40;;;;;;;3.83;2.90;;;21.70;99.90;;;;;;4938486;29;20171;-65
2021/07/06 06:10:08;;;;;;;5.77;2.33;;;21.70;99.90;;;;;;4939542;29;20501;-66
2021/07/06 06:12:34;;;;;;;4.07;2.67;;;21.80;99.90;;;;;;4938398;29;20490;-66
2021/07/06 06:15:00;;;;;;;3.17;2.20;;;21.90;99.90;;;;;;4938336;29;20438;-66
2021/07/06 06:17:26;;;;;;;3.67;2.53;;;22.00;99.90;;;;;;4943865;29;20826;-66
2021/07/06 06:19:51;;;;;;;2.57;2.37;;;22.10;99.90;;;;;;4957393;29;20537;-66
2021/07/06 06:22:17;;;;;;;4.90;2.27;;;22.20;99.90;;;;;;4956583;28;20631;-66
2021/07/06 06:24:43;;;;;;;2.83;2.10;;;22.30;99.90;;;;;;4955671;29;20302;-66
2021/07/06 06:27:08;;;;;;;2.50;2.30;;;22.40;99.90;;;;;;4938193;29;20237;-65
2021/07/06 06:29:34;;;;;;;1.73;1.63;;;22.50;99.90;;;;;;4937731;29;20176;-65
2021/07/06 06:32:00;;;;;;;2.93;1.67;;;22.70;99.90;;;;;;4938067;29;20217;-66
2021/07/06 06:34:25;;;;;;;4.23;2.20;;;22.80;99.90;;;;;;4937885;29;20923;-66
2021/07/06 06:36:51;;;;;;;3.40;1.83;;;22.90;99.90;;;;;;4937559;29;20179;-66
2021/07/06 06:39:17;;;;;;;3.90;1.67;;;23.10;99.90;;;;;;4938099;29;20201;-66
2021/07/06 06:41:42;;;;;;;4.67;2.30;;;23.10;99.90;;;;;;4938062;29;20593;-66
2021/07/06 06:44:08;;;;;;;3.00;2.00;;;23.20;99.90;;;;;;4937948;29;20254;-66
2021/07/06 06:46:34;;;;;;;2.60;2.10;;;23.30;99.90;;;;;;4937388;29;20162;-66
2021/07/06 06:49:00;;;;;;;6.90;2.90;;;23.00;99.90;;;;;;4955430;29;20269;-66
2021/07/06 06:51:27;;;;;;;3.20;2.60;;;23.00;99.90;;;;;;4957062;29;20170;-66
2021/07/06 06:53:52;;;;;;;3.03;1.80;;;23.30;99.90;;;;;;4956806;28;20437;-66
2021/07/06 06:56:18;;;;;;;2.20;2.00;;;23.60;99.90;;;;;;4956642;29;20436;-65
2021/07/06 06:58:44;;;;;;;3.63;2.10;;;23.80;99.90;;;;;;4956588;29;20197;-66
2021/07/06 07:01:10;;;;;;;4.93;1.83;;;23.90;99.90;;;;;;4956380;29;20174;-66
2021/07/06 07:03:35;;;;;;;3.67;2.40;;;24.00;99.90;;;;;;4955847;28;20517;-65
2021/07/06 07:06:01;;;;;;;4.40;2.30;;;24.10;99.90;;;;;;4956635;29;20176;-66
2021/07/06 07:08:27;;;;;;;1.57;1.47;;;24.10;99.90;;;;;;4956481;29;20611;-66
2021/07/06 07:10:53;;;;;;;1.10;1.00;;;24.00;99.90;;;;;;4956296;29;20213;-66
2021/07/06 07:13:18;;;;;;;2.50;1.10;;;24.30;99.90;;;;;;4978146;23;21041;-64
2021/07/06 07:15:45;;;;;;;1.50;1.40;;;24.70;99.90;;;;;;4955123;29;20174;-64
2021/07/06 07:18:10;;;;;;;1.93;1.37;;;25.00;99.90;;;;;;4956321;28;20202;-64
2021/07/06 07:20:36;;;;;;;3.83;1.17;;;25.20;99.90;;;;;;4956729;29;20421;-63
2021/07/06 07:23:02;;;;;;;1.73;1.00;;;25.20;99.90;;;;;;4956759;28;20562;-62
2021/07/06 07:25:29;;;;;;;1.80;1.50;;;25.50;99.90;;;;;;4956813;28;20445;-63
2021/07/06 07:27:55;;;;;;;5.13;1.40;;;25.50;99.90;;;;;;4956186;28;20170;-64
2021/07/06 07:30:22;;;;;;;1.50;1.27;;;25.60;99.90;;;;;;4956459;29;20752;-64
2021/07/06 07:32:48;;;;;;;1.87;1.17;;;25.50;99.90;;;;;;4955284;28;20209;-64
2021/07/06 07:35:15;;;;;;;1.13;1.03;;;25.80;99.90;;;;;;4956241;28;20402;-64
2021/07/06 07:37:41;;;;;;;1.73;1.17;;;26.00;99.90;;;;;;4955563;28;20887;-64
2021/07/06 07:40:08;;;;;;;1.50;0.97;;;26.30;99.90;;;;;;4955660;28;20552;-64
2021/07/06 07:42:33;;;;;;;1.27;1.00;;;26.40;99.90;;;;;;4956155;28;20859;-64
2021/07/06 07:44:59;;;;;;;2.03;1.00;;;26.20;99.90;;;;;;4955884;28;20435;-64
2021/07/06 07:47:25;;;;;;;1.20;1.00;;;25.90;99.90;;;;;;4956060;28;20639;-64
2021/07/06 07:49:50;;;;;;;2.07;1.43;;;25.90;99.90;;;;;;4954877;29;20174;-63
2021/07/06 07:52:16;;;;;;;3.20;1.20;;;25.90;99.90;;;;;;4955818;29;20193;-63
2021/07/06 07:54:42;;;;;;;1.27;1.17;;;26.10;99.90;;;;;;4954559;28;20551;-63
2021/07/06 07:57:11;;;;;;;3.33;1.20;;;26.20;99.90;;;;;;4955963;29;20173;-63
2021/07/06 07:59:38;;;;;;;1.43;1.00;;;26.30;99.90;;;;;;4955308;29;20194;-63
2021/07/06 08:02:04;;;;;;;2.90;1.10;;;26.00;99.90;;;;;;4955684;28;20414;-63
2021/07/06 08:04:30;;;;;;;1.87;1.77;;;26.00;99.90;;;;;;4955740;28;20469;-63
2021/07/06 08:06:55;;;;;;;1.73;1.20;;;26.00;99.90;;;;;;4955218;29;20497;-63
2021/07/06 08:09:21;;;;;;;1.50;1.23;;;26.00;99.90;;;;;;4955471;29;20190;-63
2021/07/06 08:11:46;;;;;;;1.60;1.07;;;26.00;99.90;;;;;;4955459;28;20241;-63
2021/07/06 08:14:12;;;;;;;1.87;1.40;;;25.90;99.90;;;;;;4955200;28;20237;-63
2021/07/06 08:16:38;;;;;;;2.70;1.60;;;25.90;99.90;;;;;;4955393;28;20540;-63
2021/07/06 08:19:04;;;;;;;1.77;1.33;;;25.70;99.90;;;;;;4953888;29;20612;-63
2021/07/06 08:21:30;;;;;;;2.77;1.33;;;25.40;99.90;;;;;;4956014;29;20181;-63
2021/07/06 08:23:59;;;;;;;1.80;1.10;;;25.40;99.90;;;;;;4953625;28;20194;-63
2021/07/06 08:26:25;;;;;;;1.20;1.00;;;25.50;99.90;;;;;;4956199;29;20404;-63
2021/07/06 08:28:52;;;;;;;1.43;1.10;;;25.80;99.90;;;;;;4955677;29;20422;-63
2021/07/06 08:31:18;;;;;;;2.50;1.17;;;26.00;99.90;;;;;;4955516;29;20253;-63
2021/07/06 08:33:43;;;;;;;1.90;1.37;;;26.20;99.90;;;;;;4955258;28;20922;-63
2021/07/06 08:36:09;;;;;;;1.63;1.30;;;26.50;99.90;;;;;;4955140;29;20198;-63
2021/07/06 08:38:38;;;;;;;3.17;1.20;;;26.80;99.90;;;;;;4954839;29;20198;-63
2021/07/06 08:41:04;;;;;;;4.60;1.70;;;26.80;99.90;;;;;;4955299;29;20162;-63
2021/07/06 08:43:29;;;;;;;1.63;1.40;;;26.90;99.90;;;;;;4954948;28;20520;-64
2021/07/06 08:45:57;;;;;;;1.50;1.03;;;27.10;99.90;;;;;;4954933;28;20593;-63
2021/07/06 08:48:24;;;;;;;1.70;1.50;;;27.20;99.90;;;;;;4954784;29;20662;-63
2021/07/06 08:50:51;;;;;;;1.40;1.23;;;27.30;99.90;;;;;;4954966;29;20414;-63
2021/07/06 08:53:17;;;;;;;1.20;1.10;;;27.20;99.90;;;;;;4954771;28;20509;-63
2021/07/06 08:55:43;;;;;;;3.40;1.63;;;27.30;99.90;;;;;;4954889;29;20859;-63
2021/07/06 08:58:08;;;;;;;1.60;1.43;;;27.40;99.90;;;;;;4954649;29;20201;-63
2021/07/06 09:00:34;;;;;;;2.13;1.20;;;27.30;99.90;;;;;;4954765;29;20256;-61
2021/07/06 09:03:07;;;;;;;1.97;1.33;;;27.40;99.90;;;;;;4955122;28;20182;-63
2021/07/06 09:05:33;;;;;;;1.40;1.30;;;27.70;99.90;;;;;;4955058;29;20494;-63
2021/07/06 09:07:59;;;;;;;3.23;2.03;;;28.10;99.90;;;;;;4954907;29;20438;-62
2021/07/06 09:10:27;;;;;;;2.10;1.80;;;28.30;99.90;;;;;;4955081;28;20437;-62
2021/07/06 09:12:53;;;;;;;3.60;1.37;;;28.50;99.90;;;;;;4954787;28;20251;-62
2021/07/06 09:15:26;;;;;;;2.83;1.20;;;28.40;99.90;;;;;;4954881;28;20402;-63
2021/07/06 09:18:31;;;;;;;1.63;1.30;;;27.80;99.90;;;;;;4955024;28;20453;-62
2021/07/06 09:20:58;;;;;;;2.10;1.30;;;28.00;99.90;;;;;;4895971;29;20455;-63
2021/07/06 09:23:34;;;;;;;1.77;1.20;;;27.70;99.90;;;;;;4944144;28;20859;-63
2021/07/06 09:26:14;;;;;;;1.20;1.10;;;27.40;99.90;;;;;;4955069;29;20398;-63
2021/07/06 09:28:54;;;;;;;2.87;1.60;;;27.70;99.90;;;;;;4954967;29;20404;-63
2021/07/06 09:31:31;;;;;;;5.23;2.00;;;27.10;99.90;;;;;;4954738;29;20412;-63
2021/07/06 09:34:14;;;;;;;8.90;3.10;;;26.20;99.90;;;;;;4953383;28;20433;-62
2021/07/06 09:36:47;;;;;;;2.13;1.77;;;25.10;99.90;;;;;;4955000;29;20441;-63
2021/07/06 09:39:20;;;;;;;3.63;1.67;;;24.20;99.90;;;;;;4954760;29;20581;-63
2021/07/06 09:42:11;;;;;;;3.30;1.93;;;23.90;99.90;;;;;;4955022;29;20477;-63
2021/07/06 09:44:40;;;;;;;1.90;1.30;;;23.70;99.90;;;;;;4954801;28;20461;-63
2021/07/06 09:47:08;;;;;;;1.40;1.10;;;23.70;99.90;;;;;;4954690;29;20492;-63
2021/07/06 09:49:39;;;;;;;1.97;1.33;;;23.50;99.90;;;;;;4954646;29;20428;-63
2021/07/06 09:52:11;;;;;;;1.87;1.20;;;23.30;99.90;;;;;;4954725;29;20390;-63
2021/07/06 09:54:44;;;;;;;1.53;1.10;;;23.40;99.90;;;;;;4954048;28;20918;-63
2021/07/06 09:57:23;;;;;;;2.23;0.80;;;23.50;99.90;;;;;;4956537;28;20870;-63
2021/07/06 10:00:03;;;;;;;2.03;0.83;;;23.70;99.90;;;;;;4957635;29;20943;-63
2021/07/06 10:02:30;;;;;;;1.83;1.03;;;23.70;99.90;;;;;;4957373;29;20402;-63
2021/07/06 10:04:58;;;;;;;2.10;1.03;;;23.70;99.90;;;;;;4957470;29;20424;-64
2021/07/06 10:07:25;;;;;;;1.77;0.80;;;24.10;99.90;;;;;;4955120;29;20426;-63
2021/07/06 10:09:51;;;;;;;2.60;1.00;;;24.50;99.90;;;;;;4957528;29;20436;-62
2021/07/06 10:12:18;;;;;;;2.20;1.00;;;24.60;99.90;;;;;;4957363;29;20424;-63
2021/07/06 10:14:44;;;;;;;1.80;1.17;;;24.80;99.90;;;;;;4957299;28;20464;-63
2021/07/06 10:17:11;;;;;;;1.50;1.00;;;25.00;99.90;;;;;;4957206;28;20449;-62
2021/07/06 10:19:40;;;;;;;1.77;1.30;;;24.90;99.90;;;;;;4956094;29;20457;-64
2021/07/06 10:22:09;;;;;;;1.40;0.90;;;24.70;99.90;;;;;;4957605;29;20414;-64
2021/07/06 10:24:40;;;;;;;1.00;0.80;;;24.70;99.90;;;;;;4957267;28;20429;-64
2021/07/06 10:27:08;;;;;;;1.53;0.97;;;24.60;99.90;;;;;;4957555;28;20417;-64
2021/07/06 10:29:35;;;;;;;0.93;0.80;;;24.60;99.90;;;;;;4957046;29;20418;-64
2021/07/06 10:32:02;;;;;;;4.73;1.13;;;24.50;99.90;;;;;;4957535;29;20410;-64
2021/07/06 10:34:28;;;;;;;1.30;1.07;;;24.50;99.90;;;;;;4957003;28;20460;-64
2021/07/06 10:36:55;;;;;;;2.53;0.90;;;24.70;99.90;;;;;;4957472;29;20486;-62
2021/07/06 10:39:47;;;;;;;0.90;0.80;;;24.80;99.90;;;;;;4957909;28;20539;-63
2021/07/06 10:42:12;;;;;;;1.30;0.90;;;25.00;99.90;;;;;;4957679;29;20409;-62
2021/07/06 10:44:40;;;;;;;2.27;1.30;;;25.20;99.90;;;;;;4958257;28;20431;-63
2021/07/06 10:47:36;;;;;;;2.30;0.60;;;25.20;99.90;;;;;;4958656;29;20209;-62
2021/07/06 10:50:34;;;;;;;1.20;0.83;;;25.00;99.90;;;;;;4956982;28;20414;-63
2021/07/06 10:53:17;;;;;;;3.77;1.47;;;24.80;99.90;;;;;;4925010;28;20448;-62
2021/07/06 10:55:45;;;;;;;1.43;0.87;;;24.50;99.90;;;;;;4957475;29;20398;-63
2021/07/06 10:58:30;;;;;;;1.50;1.00;;;24.70;99.90;;;;;;4956799;29;20773;-63
2021/07/06 11:00:57;;;;;;;1.40;0.70;;;25.00;99.90;;;;;;4957550;29;20598;-63
2021/07/06 11:03:24;;;;;;;0.93;0.80;;;25.20;99.90;;;;;;4956526;28;20434;-62
2021/07/06 11:05:49;;;;;;;2.37;1.07;;;25.50;99.90;;;;;;4956836;29;20421;-63
2021/07/06 11:08:41;;;;;;;1.80;0.93;;;26.10;99.90;;;;;;4956070;28;20413;-63
2021/07/06 11:11:07;;;;;;;1.73;0.70;;;26.00;99.90;;;;;;4957008;28;20220;-64
2021/07/06 11:13:33;;;;;;;3.57;1.23;;;25.80;99.90;;;;;;4956303;28;20441;-64
2021/07/06 11:16:01;;;;;;;1.40;0.97;;;26.10;99.90;;;;;;4955495;29;20432;-63
2021/07/06 11:18:35;;;;;;;1.90;1.10;;;26.30;99.90;;;;;;4955797;28;20734;-63
2021/07/06 11:21:00;;;;;;;2.30;1.03;;;26.30;99.90;;;;;;4956926;29;20414;-64
2021/07/06 11:23:31;;;;;;;1.00;0.80;;;26.70;99.90;;;;;;4956648;28;20440;-64
2021/07/06 11:26:01;;;;;;;1.20;1.00;;;27.10;99.90;;;;;;4956416;29;20181;-64
2021/07/06 11:28:27;;;;;;;0.90;0.70;;;27.50;99.90;;;;;;4956561;29;20476;-64
2021/07/06 11:30:55;;;;;;;1.20;0.70;;;28.00;99.90;;;;;;4956373;29;20902;-64
2021/07/06 11:33:36;;;;;;;0.87;0.73;;;27.70;99.90;;;;;;4956069;28;20946;-64
2021/07/06 11:36:05;;;;;;;1.00;0.80;;;27.50;99.90;;;;;;4955116;29;20512;-64
2021/07/06 11:38:48;;;;;;;3.53;0.90;;;27.20;99.90;;;;;;4956441;29;20817;-64
2021/07/06 11:41:16;;;;;;;2.53;0.90;;;26.60;99.90;;;;;;4956551;29;20437;-63
2021/07/06 11:43:42;;;;;;;0.90;0.63;;;26.60;99.90;;;;;;4956008;28;20497;-64
2021/07/06 11:46:31;;;;;;;0.90;0.80;;;26.20;99.90;;;;;;4956775;29;20437;-62
2021/07/06 11:49:00;;;;;;;2.97;0.83;;;26.50;99.90;;;;;;4954846;29;20429;-63
2021/07/06 11:51:26;;;;;;;1.10;0.70;;;26.20;99.90;;;;;;4956036;29;20453;-62
2021/07/06 11:53:56;;;;;;;2.70;0.70;;;26.30;99.90;;;;;;4956112;28;20468;-62
2021/07/06 11:56:24;;;;;;;0.90;0.80;;;25.70;99.90;;;;;;4954775;29;20210;-62
2021/07/06 11:58:51;;;;;;;1.10;0.70;;;25.40;99.90;;;;;;4955388;29;21009;-63
2021/07/06 12:01:17;;;;;;;1.30;0.90;;;25.30;99.90;;;;;;4955779;28;20406;-62
2021/07/06 12:03:43;;;;;;;1.00;0.80;;;25.40;99.90;;;;;;4955136;28;20429;-62
2021/07/06 12:06:10;;;;;;;2.60;0.97;;;25.40;99.90;;;;;;4956101;29;20891;-62
2021/07/06 12:08:37;;;;;;;1.20;1.00;;;25.40;99.90;;;;;;4956061;29;20657;-62
2021/07/06 12:11:06;;;;;;;1.10;1.00;;;25.40;99.90;;;;;;4955727;28;20549;-64
2021/07/06 12:13:50;;;;;;;1.63;0.87;;;25.50;99.90;;;;;;4954226;29;20827;-63
2021/07/06 12:16:18;;;;;;;0.80;0.70;;;25.90;99.90;;;;;;4955958;28;20778;-63
2021/07/06 12:18:56;;;;;;;1.17;1.07;;;26.00;99.90;;;;;;4954453;28;20557;-63
2021/07/06 12:21:27;;;;;;;1.83;1.73;;;26.30;99.90;;;;;;4956508;29;20405;-63
2021/07/06 12:23:55;;;;;;;1.13;0.87;;;26.90;99.90;;;;;;4955937;28;20436;-63
2021/07/06 12:26:22;;;;;;;0.90;0.70;;;27.20;99.90;;;;;;4954250;29;20436;-63
2021/07/06 12:28:48;;;;;;;1.00;0.60;;;27.40;99.90;;;;;;4955628;29;20413;-63
2021/07/06 12:31:25;;;;;;;1.17;0.90;;;27.30;99.90;;;;;;4954787;29;20978;-63
2021/07/06 12:34:07;;;;;;;0.90;0.80;;;26.60;99.90;;;;;;4955520;28;20516;-63
2021/07/06 12:36:54;;;;;;;1.27;0.80;;;26.70;99.90;;;;;;4954250;29;20805;-63
2021/07/06 12:39:37;;;;;;;1.67;0.70;;;26.60;99.90;;;;;;4954045;29;20460;-63
2021/07/06 12:42:10;;;;;;;2.20;1.43;;;26.60;99.90;;;;;;4955503;29;20398;-63
2021/07/06 12:44:38;;;;;;;1.10;0.80;;;26.60;99.90;;;;;;4955305;28;20809;-63
2021/07/06 12:47:22;;;;;;;1.27;0.70;;;26.90;99.90;;;;;;4955335;29;20434;-63
2021/07/06 12:49:59;;;;;;;1.10;0.80;;;26.80;99.90;;;;;;4955542;29;20418;-63
2021/07/06 12:52:33;;;;;;;1.70;1.60;;;26.50;99.90;;;;;;4955665;29;20393;-63